sensor_id;sensor_type;location;lat;lon;timestamp;pressure;altitude;pressure_sealevel;temperature
18782;BMP180;9519;51.890;8.970;2022-12-20T00:04:48;98957.00;;;3.60
18782;BMP180;9519;51.890;8.970;2022-12-20T00:09:50;98965.00;;;3.60
18782;BMP180;9519;51.890;8.970;2022-12-20T00:14:52;98924.00;;;3.50
18782;BMP180;9519;51.890;8.970;2022-12-20T00:19:55;98956.00;;;3.50
18782;BMP180;9519;51.890;8.970;2022-12-20T00:24:57;98953.00;;;3.40
18782;BMP180;9519;51.890;8.970;2022-12-20T00:29:59;98939.00;;;3.40
18782;BMP180;9519;51.890;8.970;2022-12-20T00:35:03;98965.00;;;3.40
18782;BMP180;9519;51.890;8.970;2022-12-20T00:40:07;98969.00;;;3.30
18782;BMP180;9519;51.890;8.970;2022-12-20T00:45:10;98931.00;;;3.30
18782;BMP180;9519;51.890;8.970;2022-12-20T00:50:14;98943.00;;;3.30
18782;BMP180;9519;51.890;8.970;2022-12-20T00:55:16;98913.00;;;3.30
18782;BMP180;9519;51.890;8.970;2022-12-20T01:00:19;98910.00;;;3.40
18782;BMP180;9519;51.890;8.970;2022-12-20T01:05:23;98882.00;;;3.50
18782;BMP180;9519;51.890;8.970;2022-12-20T01:10:26;98945.00;;;3.60
18782;BMP180;9519;51.890;8.970;2022-12-20T01:15:28;98961.00;;;3.60
18782;BMP180;9519;51.890;8.970;2022-12-20T01:20:31;98953.00;;;3.80
18782;BMP180;9519;51.890;8.970;2022-12-20T01:25:33;98971.00;;;3.80
18782;BMP180;9519;51.890;8.970;2022-12-20T01:30:39;98973.00;;;3.90
18782;BMP180;9519;51.890;8.970;2022-12-20T01:35:55;98963.00;;;4.00
18782;BMP180;9519;51.890;8.970;2022-12-20T01:40:57;98966.00;;;4.10
18782;BMP180;9519;51.890;8.970;2022-12-20T01:45:59;98974.00;;;4.10
18782;BMP180;9519;51.890;8.970;2022-12-20T01:51:05;99000.00;;;4.10
18782;BMP180;9519;51.890;8.970;2022-12-20T01:56:09;98991.00;;;4.10
18782;BMP180;9519;51.890;8.970;2022-12-20T02:01:11;98953.00;;;4.20
18782;BMP180;9519;51.890;8.970;2022-12-20T02:06:17;98983.00;;;4.10
18782;BMP180;9519;51.890;8.970;2022-12-20T02:11:44;98987.00;;;4.20
18782;BMP180;9519;51.890;8.970;2022-12-20T02:16:54;98981.00;;;4.20
18782;BMP180;9519;51.890;8.970;2022-12-20T02:22:13;98959.00;;;4.10
18782;BMP180;9519;51.890;8.970;2022-12-20T02:27:45;98920.00;;;4.20
18782;BMP180;9519;51.890;8.970;2022-12-20T02:32:59;98992.00;;;4.20
18782;BMP180;9519;51.890;8.970;2022-12-20T02:43:22;98979.00;;;4.30
18782;BMP180;9519;51.890;8.970;2022-12-20T02:48:46;98985.00;;;4.30
18782;BMP180;9519;51.890;8.970;2022-12-20T02:53:49;98962.00;;;4.30
18782;BMP180;9519;51.890;8.970;2022-12-20T02:58:59;98973.00;;;4.40
18782;BMP180;9519;51.890;8.970;2022-12-20T03:04:05;98973.00;;;4.30
18782;BMP180;9519;51.890;8.970;2022-12-20T03:09:08;98944.00;;;4.30
18782;BMP180;9519;51.890;8.970;2022-12-20T03:14:10;98917.00;;;4.20
18782;BMP180;9519;51.890;8.970;2022-12-20T03:19:14;98908.00;;;4.20
18782;BMP180;9519;51.890;8.970;2022-12-20T03:24:16;98930.00;;;4.20
18782;BMP180;9519;51.890;8.970;2022-12-20T03:29:19;98901.00;;;4.20
18782;BMP180;9519;51.890;8.970;2022-12-20T03:34:22;98907.00;;;4.20
18782;BMP180;9519;51.890;8.970;2022-12-20T03:39:24;98904.00;;;4.20
18782;BMP180;9519;51.890;8.970;2022-12-20T03:44:26;98898.00;;;4.20
18782;BMP180;9519;51.890;8.970;2022-12-20T03:49:30;98903.00;;;4.20
18782;BMP180;9519;51.890;8.970;2022-12-20T03:54:32;98925.00;;;4.30
18782;BMP180;9519;51.890;8.970;2022-12-20T03:59:34;98932.00;;;4.30
18782;BMP180;9519;51.890;8.970;2022-12-20T04:04:37;98921.00;;;4.30
18782;BMP180;9519;51.890;8.970;2022-12-20T04:09:40;98937.00;;;4.40
18782;BMP180;9519;51.890;8.970;2022-12-20T04:14:42;98949.00;;;4.40
18782;BMP180;9519;51.890;8.970;2022-12-20T04:19:46;98938.00;;;4.40
18782;BMP180;9519;51.890;8.970;2022-12-20T04:24:48;98949.00;;;4.40
18782;BMP180;9519;51.890;8.970;2022-12-20T04:29:50;98941.00;;;4.40
18782;BMP180;9519;51.890;8.970;2022-12-20T04:34:53;98931.00;;;4.40
18782;BMP180;9519;51.890;8.970;2022-12-20T04:39:56;98970.00;;;4.50
18782;BMP180;9519;51.890;8.970;2022-12-20T04:44:58;98933.00;;;4.50
18782;BMP180;9519;51.890;8.970;2022-12-20T04:50:03;98929.00;;;4.50
18782;BMP180;9519;51.890;8.970;2022-12-20T04:55:06;98968.00;;;4.50
18782;BMP180;9519;51.890;8.970;2022-12-20T05:00:10;98937.00;;;4.60
18782;BMP180;9519;51.890;8.970;2022-12-20T05:05:13;98929.00;;;4.60
18782;BMP180;9519;51.890;8.970;2022-12-20T05:10:16;98915.00;;;4.60
18782;BMP180;9519;51.890;8.970;2022-12-20T05:15:18;98930.00;;;4.60
18782;BMP180;9519;51.890;8.970;2022-12-20T05:20:21;98931.00;;;4.60
18782;BMP180;9519;51.890;8.970;2022-12-20T05:25:23;98910.00;;;4.60
18782;BMP180;9519;51.890;8.970;2022-12-20T05:30:43;98937.00;;;4.70
18782;BMP180;9519;51.890;8.970;2022-12-20T05:35:48;98913.00;;;4.70
18782;BMP180;9519;51.890;8.970;2022-12-20T05:40:50;98904.00;;;4.70
18782;BMP180;9519;51.890;8.970;2022-12-20T05:45:52;98915.00;;;4.70
18782;BMP180;9519;51.890;8.970;2022-12-20T05:50:56;98907.00;;;4.70
18782;BMP180;9519;51.890;8.970;2022-12-20T05:55:59;98955.00;;;4.70
18782;BMP180;9519;51.890;8.970;2022-12-20T06:01:03;98952.00;;;4.70
18782;BMP180;9519;51.890;8.970;2022-12-20T06:06:08;98925.00;;;4.80
18782;BMP180;9519;51.890;8.970;2022-12-20T06:11:10;98919.00;;;4.80
18782;BMP180;9519;51.890;8.970;2022-12-20T06:16:12;98918.00;;;4.80
18782;BMP180;9519;51.890;8.970;2022-12-20T06:21:15;98913.00;;;4.90
18782;BMP180;9519;51.890;8.970;2022-12-20T06:26:17;98916.00;;;4.90
18782;BMP180;9519;51.890;8.970;2022-12-20T06:31:19;98916.00;;;4.90
18782;BMP180;9519;51.890;8.970;2022-12-20T06:36:23;98902.00;;;5.00
18782;BMP180;9519;51.890;8.970;2022-12-20T06:41:25;98922.00;;;5.00
18782;BMP180;9519;51.890;8.970;2022-12-20T06:46:27;98909.00;;;5.00
18782;BMP180;9519;51.890;8.970;2022-12-20T06:51:30;98904.00;;;5.00
18782;BMP180;9519;51.890;8.970;2022-12-20T06:56:32;98928.00;;;5.10
18782;BMP180;9519;51.890;8.970;2022-12-20T07:01:34;98905.00;;;5.10
18782;BMP180;9519;51.890;8.970;2022-12-20T07:06:38;98901.00;;;5.00
18782;BMP180;9519;51.890;8.970;2022-12-20T07:11:40;98910.00;;;5.00
18782;BMP180;9519;51.890;8.970;2022-12-20T07:16:42;98920.00;;;5.00
18782;BMP180;9519;51.890;8.970;2022-12-20T07:21:46;98890.00;;;5.20
18782;BMP180;9519;51.890;8.970;2022-12-20T07:26:48;98898.00;;;5.10
18782;BMP180;9519;51.890;8.970;2022-12-20T07:31:50;98906.00;;;5.10
18782;BMP180;9519;51.890;8.970;2022-12-20T07:36:54;98919.00;;;5.10
18782;BMP180;9519;51.890;8.970;2022-12-20T07:41:56;98937.00;;;5.10
18782;BMP180;9519;51.890;8.970;2022-12-20T07:46:58;98925.00;;;5.10
18782;BMP180;9519;51.890;8.970;2022-12-20T07:52:04;98936.00;;;5.00
18782;BMP180;9519;51.890;8.970;2022-12-20T07:57:14;98921.00;;;5.00
18782;BMP180;9519;51.890;8.970;2022-12-20T08:02:25;98916.00;;;5.00
18782;BMP180;9519;51.890;8.970;2022-12-20T08:07:30;98920.00;;;5.00
18782;BMP180;9519;51.890;8.970;2022-12-20T08:12:33;98909.00;;;5.00
18782;BMP180;9519;51.890;8.970;2022-12-20T08:17:35;98905.00;;;5.00
18782;BMP180;9519;51.890;8.970;2022-12-20T08:22:38;98907.00;;;5.00
18782;BMP180;9519;51.890;8.970;2022-12-20T08:27:40;98878.00;;;5.00
18782;BMP180;9519;51.890;8.970;2022-12-20T08:32:42;98886.00;;;5.00
18782;BMP180;9519;51.890;8.970;2022-12-20T08:37:45;98889.00;;;5.10
18782;BMP180;9519;51.890;8.970;2022-12-20T08:42:48;98891.00;;;5.10
18782;BMP180;9519;51.890;8.970;2022-12-20T08:47:50;98875.00;;;5.20
18782;BMP180;9519;51.890;8.970;2022-12-20T08:52:53;98882.00;;;5.20
18782;BMP180;9519;51.890;8.970;2022-12-20T08:57:55;98868.00;;;5.30
18782;BMP180;9519;51.890;8.970;2022-12-20T09:02:57;98876.00;;;5.40
18782;BMP180;9519;51.890;8.970;2022-12-20T09:08:00;98872.00;;;5.40
18782;BMP180;9519;51.890;8.970;2022-12-20T09:13:02;98859.00;;;5.50
18782;BMP180;9519;51.890;8.970;2022-12-20T09:18:04;98880.00;;;5.50
18782;BMP180;9519;51.890;8.970;2022-12-20T09:23:08;98876.00;;;5.60
18782;BMP180;9519;51.890;8.970;2022-12-20T09:28:10;98880.00;;;5.70
18782;BMP180;9519;51.890;8.970;2022-12-20T09:33:12;98863.00;;;5.70
18782;BMP180;9519;51.890;8.970;2022-12-20T09:38:16;98879.00;;;5.80
18782;BMP180;9519;51.890;8.970;2022-12-20T09:43:19;98898.00;;;5.80
18782;BMP180;9519;51.890;8.970;2022-12-20T09:48:30;98903.00;;;5.90
18782;BMP180;9519;51.890;8.970;2022-12-20T09:53:47;98875.00;;;6.00
18782;BMP180;9519;51.890;8.970;2022-12-20T09:59:00;98885.00;;;6.00
18782;BMP180;9519;51.890;8.970;2022-12-20T10:04:09;98888.00;;;6.10
18782;BMP180;9519;51.890;8.970;2022-12-20T10:09:39;98883.00;;;6.20
18782;BMP180;9519;51.890;8.970;2022-12-20T10:15:00;98882.00;;;6.20
18782;BMP180;9519;51.890;8.970;2022-12-20T10:20:26;98882.00;;;6.30
18782;BMP180;9519;51.890;8.970;2022-12-20T10:25:33;98889.00;;;6.40
18782;BMP180;9519;51.890;8.970;2022-12-20T10:30:35;98885.00;;;6.40
18782;BMP180;9519;51.890;8.970;2022-12-20T10:35:39;98870.00;;;6.50
18782;BMP180;9519;51.890;8.970;2022-12-20T10:40:47;98894.00;;;6.50
18782;BMP180;9519;51.890;8.970;2022-12-20T10:45:57;98887.00;;;6.50
18782;BMP180;9519;51.890;8.970;2022-12-20T10:51:03;98863.00;;;6.50
18782;BMP180;9519;51.890;8.970;2022-12-20T10:56:20;98858.00;;;6.60
18782;BMP180;9519;51.890;8.970;2022-12-20T11:01:27;98854.00;;;6.60
18782;BMP180;9519;51.890;8.970;2022-12-20T11:06:43;98827.00;;;6.60
18782;BMP180;9519;51.890;8.970;2022-12-20T11:12:03;98829.00;;;6.60
18782;BMP180;9519;51.890;8.970;2022-12-20T11:17:24;98825.00;;;6.60
18782;BMP180;9519;51.890;8.970;2022-12-20T11:22:43;98845.00;;;6.70
18782;BMP180;9519;51.890;8.970;2022-12-20T11:28:01;98830.00;;;6.70
18782;BMP180;9519;51.890;8.970;2022-12-20T11:33:32;98822.00;;;6.80
18782;BMP180;9519;51.890;8.970;2022-12-20T11:38:42;98838.00;;;6.90
18782;BMP180;9519;51.890;8.970;2022-12-20T11:44:04;98836.00;;;7.00
18782;BMP180;9519;51.890;8.970;2022-12-20T11:49:38;98817.00;;;7.00
18782;BMP180;9519;51.890;8.970;2022-12-20T11:54:57;98813.00;;;7.10
18782;BMP180;9519;51.890;8.970;2022-12-20T12:00:06;98799.00;;;7.20
18782;BMP180;9519;51.890;8.970;2022-12-20T12:05:19;98787.00;;;7.20
18782;BMP180;9519;51.890;8.970;2022-12-20T12:10:24;98795.00;;;7.20
18782;BMP180;9519;51.890;8.970;2022-12-20T12:15:39;98780.00;;;7.20
18782;BMP180;9519;51.890;8.970;2022-12-20T12:20:55;98774.00;;;7.20
18782;BMP180;9519;51.890;8.970;2022-12-20T12:26:04;98765.00;;;7.20
18782;BMP180;9519;51.890;8.970;2022-12-20T12:31:15;98738.00;;;7.20
18782;BMP180;9519;51.890;8.970;2022-12-20T12:36:39;98746.00;;;7.20
18782;BMP180;9519;51.890;8.970;2022-12-20T12:42:26;98741.00;;;7.20
18782;BMP180;9519;51.890;8.970;2022-12-20T12:47:42;98746.00;;;7.20
18782;BMP180;9519;51.890;8.970;2022-12-20T12:52:53;98746.00;;;7.20
18782;BMP180;9519;51.890;8.970;2022-12-20T12:57:57;98742.00;;;7.20
18782;BMP180;9519;51.890;8.970;2022-12-20T13:03:13;98709.00;;;7.20
18782;BMP180;9519;51.890;8.970;2022-12-20T13:08:17;98725.00;;;7.20
18782;BMP180;9519;51.890;8.970;2022-12-20T13:13:24;98738.00;;;7.10
18782;BMP180;9519;51.890;8.970;2022-12-20T13:18:28;98728.00;;;7.10
18782;BMP180;9519;51.890;8.970;2022-12-20T13:23:30;98720.00;;;7.20
18782;BMP180;9519;51.890;8.970;2022-12-20T13:28:45;98711.00;;;7.20
18782;BMP180;9519;51.890;8.970;2022-12-20T13:33:50;98736.00;;;7.20
18782;BMP180;9519;51.890;8.970;2022-12-20T13:38:55;98745.00;;;7.20
18782;BMP180;9519;51.890;8.970;2022-12-20T13:49:28;98748.00;;;7.20
18782;BMP180;9519;51.890;8.970;2022-12-20T13:54:30;98743.00;;;7.20
18782;BMP180;9519;51.890;8.970;2022-12-20T13:59:36;98740.00;;;7.20
18782;BMP180;9519;51.890;8.970;2022-12-20T14:04:43;98756.00;;;7.30
18782;BMP180;9519;51.890;8.970;2022-12-20T14:09:56;98735.00;;;7.30
18782;BMP180;9519;51.890;8.970;2022-12-20T14:14:58;98742.00;;;7.30
18782;BMP180;9519;51.890;8.970;2022-12-20T14:20:13;98735.00;;;7.30
18782;BMP180;9519;51.890;8.970;2022-12-20T14:25:25;98752.00;;;7.30
18782;BMP180;9519;51.890;8.970;2022-12-20T14:30:32;98764.00;;;7.30
18782;BMP180;9519;51.890;8.970;2022-12-20T14:35:46;98736.00;;;7.30
18782;BMP180;9519;51.890;8.970;2022-12-20T14:40:49;98735.00;;;7.20
18782;BMP180;9519;51.890;8.970;2022-12-20T14:46:16;98729.00;;;7.20
18782;BMP180;9519;51.890;8.970;2022-12-20T14:51:20;98711.00;;;7.20
18782;BMP180;9519;51.890;8.970;2022-12-20T14:56:22;98715.00;;;7.20
18782;BMP180;9519;51.890;8.970;2022-12-20T15:01:25;98700.00;;;7.10
18782;BMP180;9519;51.890;8.970;2022-12-20T15:06:36;98700.00;;;7.10
18782;BMP180;9519;51.890;8.970;2022-12-20T15:11:43;98701.00;;;7.10
18782;BMP180;9519;51.890;8.970;2022-12-20T15:16:50;98708.00;;;7.10
18782;BMP180;9519;51.890;8.970;2022-12-20T15:21:54;98698.00;;;7.10
18782;BMP180;9519;51.890;8.970;2022-12-20T15:26:56;98727.00;;;7.20
18782;BMP180;9519;51.890;8.970;2022-12-20T15:32:04;98724.00;;;7.20
18782;BMP180;9519;51.890;8.970;2022-12-20T15:37:15;98728.00;;;7.20
18782;BMP180;9519;51.890;8.970;2022-12-20T15:42:19;98749.00;;;7.20
18782;BMP180;9519;51.890;8.970;2022-12-20T15:47:22;98750.00;;;7.20
18782;BMP180;9519;51.890;8.970;2022-12-20T15:52:26;98725.00;;;7.20
18782;BMP180;9519;51.890;8.970;2022-12-20T15:57:28;98722.00;;;7.20
18782;BMP180;9519;51.890;8.970;2022-12-20T16:02:31;98723.00;;;7.10
18782;BMP180;9519;51.890;8.970;2022-12-20T16:07:37;98715.00;;;7.10
18782;BMP180;9519;51.890;8.970;2022-12-20T16:12:39;98724.00;;;7.20
18782;BMP180;9519;51.890;8.970;2022-12-20T16:17:42;98720.00;;;7.20
18782;BMP180;9519;51.890;8.970;2022-12-20T16:22:45;98701.00;;;7.20
18782;BMP180;9519;51.890;8.970;2022-12-20T16:27:48;98707.00;;;7.20
18782;BMP180;9519;51.890;8.970;2022-12-20T16:32:50;98710.00;;;7.20
18782;BMP180;9519;51.890;8.970;2022-12-20T16:37:54;98696.00;;;7.20
18782;BMP180;9519;51.890;8.970;2022-12-20T16:42:59;98710.00;;;7.20
18782;BMP180;9519;51.890;8.970;2022-12-20T16:48:01;98699.00;;;7.10
18782;BMP180;9519;51.890;8.970;2022-12-20T16:53:04;98688.00;;;7.10
18782;BMP180;9519;51.890;8.970;2022-12-20T16:58:06;98701.00;;;7.00
18782;BMP180;9519;51.890;8.970;2022-12-20T17:03:08;98661.00;;;6.90
18782;BMP180;9519;51.890;8.970;2022-12-20T17:08:12;98647.00;;;6.80
18782;BMP180;9519;51.890;8.970;2022-12-20T17:13:14;98641.00;;;6.70
18782;BMP180;9519;51.890;8.970;2022-12-20T17:18:16;98648.00;;;6.70
18782;BMP180;9519;51.890;8.970;2022-12-20T17:23:20;98640.00;;;6.70
18782;BMP180;9519;51.890;8.970;2022-12-20T17:28:22;98635.00;;;6.70
18782;BMP180;9519;51.890;8.970;2022-12-20T17:33:25;98623.00;;;6.70
18782;BMP180;9519;51.890;8.970;2022-12-20T17:38:29;98612.00;;;6.70
18782;BMP180;9519;51.890;8.970;2022-12-20T17:43:31;98660.00;;;6.70
18782;BMP180;9519;51.890;8.970;2022-12-20T17:48:33;98649.00;;;6.70
18782;BMP180;9519;51.890;8.970;2022-12-20T17:53:37;98640.00;;;6.60
18782;BMP180;9519;51.890;8.970;2022-12-20T17:58:39;98648.00;;;6.60
18782;BMP180;9519;51.890;8.970;2022-12-20T18:03:41;98645.00;;;6.60
18782;BMP180;9519;51.890;8.970;2022-12-20T18:08:48;98636.00;;;6.60
18782;BMP180;9519;51.890;8.970;2022-12-20T18:13:52;98625.00;;;6.60
18782;BMP180;9519;51.890;8.970;2022-12-20T18:18:55;98628.00;;;6.50
18782;BMP180;9519;51.890;8.970;2022-12-20T18:23:58;98624.00;;;6.50
18782;BMP180;9519;51.890;8.970;2022-12-20T18:29:01;98588.00;;;6.40
18782;BMP180;9519;51.890;8.970;2022-12-20T18:34:04;98629.00;;;6.40
18782;BMP180;9519;51.890;8.970;2022-12-20T18:39:11;98635.00;;;6.40
18782;BMP180;9519;51.890;8.970;2022-12-20T18:44:16;98604.00;;;6.40
18782;BMP180;9519;51.890;8.970;2022-12-20T18:49:18;98609.00;;;6.40
18782;BMP180;9519;51.890;8.970;2022-12-20T18:54:22;98602.00;;;6.40
18782;BMP180;9519;51.890;8.970;2022-12-20T18:59:24;98572.00;;;6.40
18782;BMP180;9519;51.890;8.970;2022-12-20T19:04:26;98617.00;;;6.40
18782;BMP180;9519;51.890;8.970;2022-12-20T19:09:30;98570.00;;;6.50
18782;BMP180;9519;51.890;8.970;2022-12-20T19:14:32;98363.00;;;6.50
18782;BMP180;9519;51.890;8.970;2022-12-20T19:19:34;98604.00;;;6.50
18782;BMP180;9519;51.890;8.970;2022-12-20T19:24:38;98592.00;;;6.50
18782;BMP180;9519;51.890;8.970;2022-12-20T19:29:40;98601.00;;;6.60
18782;BMP180;9519;51.890;8.970;2022-12-20T19:34:42;98595.00;;;6.60
18782;BMP180;9519;51.890;8.970;2022-12-20T19:39:45;98592.00;;;6.60
18782;BMP180;9519;51.890;8.970;2022-12-20T19:44:47;98605.00;;;6.60
18782;BMP180;9519;51.890;8.970;2022-12-20T19:49:51;98606.00;;;6.60
18782;BMP180;9519;51.890;8.970;2022-12-20T19:54:57;98591.00;;;6.70
18782;BMP180;9519;51.890;8.970;2022-12-20T19:59:59;98590.00;;;6.70
18782;BMP180;9519;51.890;8.970;2022-12-20T20:05:01;98602.00;;;6.70
18782;BMP180;9519;51.890;8.970;2022-12-20T20:10:07;98609.00;;;6.70
18782;BMP180;9519;51.890;8.970;2022-12-20T20:15:09;98600.00;;;6.70
18782;BMP180;9519;51.890;8.970;2022-12-20T20:20:12;98588.00;;;6.70
18782;BMP180;9519;51.890;8.970;2022-12-20T20:25:15;98594.00;;;6.70
18782;BMP180;9519;51.890;8.970;2022-12-20T20:30:18;98577.00;;;6.70
18782;BMP180;9519;51.890;8.970;2022-12-20T20:35:20;98593.00;;;6.70
18782;BMP180;9519;51.890;8.970;2022-12-20T20:40:24;98574.00;;;6.70
18782;BMP180;9519;51.890;8.970;2022-12-20T20:45:26;98597.00;;;6.80
18782;BMP180;9519;51.890;8.970;2022-12-20T20:50:28;98589.00;;;6.70
18782;BMP180;9519;51.890;8.970;2022-12-20T20:55:32;98596.00;;;6.80
18782;BMP180;9519;51.890;8.970;2022-12-20T21:00:34;98584.00;;;6.80
18782;BMP180;9519;51.890;8.970;2022-12-20T21:05:36;98608.00;;;6.80
18782;BMP180;9519;51.890;8.970;2022-12-20T21:10:40;98582.00;;;6.80
18782;BMP180;9519;51.890;8.970;2022-12-20T21:15:42;98583.00;;;6.80
18782;BMP180;9519;51.890;8.970;2022-12-20T21:20:45;98585.00;;;6.80
18782;BMP180;9519;51.890;8.970;2022-12-20T21:25:56;98585.00;;;6.80
18782;BMP180;9519;51.890;8.970;2022-12-20T21:30:59;98594.00;;;6.70
18782;BMP180;9519;51.890;8.970;2022-12-20T21:36:03;98601.00;;;6.80
18782;BMP180;9519;51.890;8.970;2022-12-20T21:41:11;98589.00;;;6.80
18782;BMP180;9519;51.890;8.970;2022-12-20T21:46:14;98587.00;;;6.80
18782;BMP180;9519;51.890;8.970;2022-12-20T21:51:19;98571.00;;;6.80
18782;BMP180;9519;51.890;8.970;2022-12-20T21:56:25;98542.00;;;6.80
18782;BMP180;9519;51.890;8.970;2022-12-20T22:01:29;98587.00;;;6.80
18782;BMP180;9519;51.890;8.970;2022-12-20T22:06:32;98585.00;;;6.80
18782;BMP180;9519;51.890;8.970;2022-12-20T22:11:37;98566.00;;;6.80
18782;BMP180;9519;51.890;8.970;2022-12-20T22:16:39;98564.00;;;6.80
18782;BMP180;9519;51.890;8.970;2022-12-20T22:21:43;98560.00;;;6.80
18782;BMP180;9519;51.890;8.970;2022-12-20T22:26:46;98568.00;;;6.70
18782;BMP180;9519;51.890;8.970;2022-12-20T22:31:48;98563.00;;;6.70
18782;BMP180;9519;51.890;8.970;2022-12-20T22:36:52;98557.00;;;6.70
18782;BMP180;9519;51.890;8.970;2022-12-20T22:41:55;98549.00;;;6.60
18782;BMP180;9519;51.890;8.970;2022-12-20T22:46:57;98561.00;;;6.60
18782;BMP180;9519;51.890;8.970;2022-12-20T22:51:59;98537.00;;;6.60
18782;BMP180;9519;51.890;8.970;2022-12-20T22:57:03;98553.00;;;6.50
18782;BMP180;9519;51.890;8.970;2022-12-20T23:02:05;98539.00;;;6.40
18782;BMP180;9519;51.890;8.970;2022-12-20T23:07:07;98526.00;;;6.40
18782;BMP180;9519;51.890;8.970;2022-12-20T23:12:10;98526.00;;;6.40
18782;BMP180;9519;51.890;8.970;2022-12-20T23:17:31;98531.00;;;6.40
18782;BMP180;9519;51.890;8.970;2022-12-20T23:22:34;98526.00;;;6.50
18782;BMP180;9519;51.890;8.970;2022-12-20T23:27:45;98547.00;;;6.50
18782;BMP180;9519;51.890;8.970;2022-12-20T23:32:48;98560.00;;;6.60
18782;BMP180;9519;51.890;8.970;2022-12-20T23:37:50;98536.00;;;6.60
18782;BMP180;9519;51.890;8.970;2022-12-20T23:42:54;98530.00;;;6.60
18782;BMP180;9519;51.890;8.970;2022-12-20T23:47:56;98540.00;;;6.60
18782;BMP180;9519;51.890;8.970;2022-12-20T23:52:58;98526.00;;;6.60
18782;BMP180;9519;51.890;8.970;2022-12-20T23:58:04;98524.00;;;6.70
